sensor_id;sensor_type;location;lat;lon;timestamp;P1;durP1;ratioP1;P2;durP2;ratioP2
1799;SDS011;919;48.274;12.292;2022-10-15T00:01:13;4.43;;;3.50;;
1799;SDS011;919;48.274;12.292;2022-10-15T00:03:42;4.83;;;4.03;;
1799;SDS011;919;48.274;12.292;2022-10-15T00:06:11;4.60;;;3.73;;
1799;SDS011;919;48.274;12.292;2022-10-15T00:08:40;5.03;;;4.10;;
1799;SDS011;919;48.274;12.292;2022-10-15T00:11:08;5.20;;;3.73;;
1799;SDS011;919;48.274;12.292;2022-10-15T00:13:37;4.33;;;3.30;;
1799;SDS011;919;48.274;12.292;2022-10-15T00:18:33;6.03;;;3.87;;
1799;SDS011;919;48.274;12.292;2022-10-15T00:21:00;4.23;;;3.77;;
1799;SDS011;919;48.274;12.292;2022-10-15T00:23:32;3.70;;;3.40;;
1799;SDS011;919;48.274;12.292;2022-10-15T00:26:00;4.17;;;3.77;;
1799;SDS011;919;48.274;12.292;2022-10-15T00:28:27;5.13;;;3.80;;
1799;SDS011;919;48.274;12.292;2022-10-15T00:30:58;4.00;;;3.37;;
1799;SDS011;919;48.274;12.292;2022-10-15T00:33:26;3.60;;;3.30;;
1799;SDS011;919;48.274;12.292;2022-10-15T00:35:57;4.60;;;4.20;;
1799;SDS011;919;48.274;12.292;2022-10-15T00:38:24;4.50;;;4.10;;
1799;SDS011;919;48.274;12.292;2022-10-15T00:40:53;3.30;;;3.10;;
1799;SDS011;919;48.274;12.292;2022-10-15T00:43:34;4.50;;;4.10;;
1799;SDS011;919;48.274;12.292;2022-10-15T00:46:06;4.03;;;3.47;;
1799;SDS011;919;48.274;12.292;2022-10-15T00:48:41;3.90;;;3.60;;
1799;SDS011;919;48.274;12.292;2022-10-15T00:51:09;3.40;;;3.10;;
1799;SDS011;919;48.274;12.292;2022-10-15T00:53:35;3.73;;;3.27;;
1799;SDS011;919;48.274;12.292;2022-10-15T00:56:04;4.63;;;3.50;;
1799;SDS011;919;48.274;12.292;2022-10-15T00:58:31;3.43;;;3.13;;
1799;SDS011;919;48.274;12.292;2022-10-15T01:01:00;3.57;;;3.27;;
1799;SDS011;919;48.274;12.292;2022-10-15T01:03:27;5.73;;;3.77;;
1799;SDS011;919;48.274;12.292;2022-10-15T01:05:54;2.87;;;2.60;;
1799;SDS011;919;48.274;12.292;2022-10-15T01:08:21;4.13;;;3.43;;
1799;SDS011;919;48.274;12.292;2022-10-15T01:10:50;3.23;;;2.93;;
1799;SDS011;919;48.274;12.292;2022-10-15T01:13:29;3.80;;;2.50;;
1799;SDS011;919;48.274;12.292;2022-10-15T01:16:04;4.77;;;3.30;;
1799;SDS011;919;48.274;12.292;2022-10-15T01:18:38;5.17;;;3.00;;
1799;SDS011;919;48.274;12.292;2022-10-15T01:21:10;3.30;;;3.03;;
1799;SDS011;919;48.274;12.292;2022-10-15T01:27:01;4.03;;;3.60;;
1799;SDS011;919;48.274;12.292;2022-10-15T01:35:47;3.40;;;3.10;;
1799;SDS011;919;48.274;12.292;2022-10-15T01:38:21;5.60;;;3.70;;
1799;SDS011;919;48.274;12.292;2022-10-15T01:40:53;4.50;;;4.00;;
1799;SDS011;919;48.274;12.292;2022-10-15T01:43:25;4.63;;;3.53;;
1799;SDS011;919;48.274;12.292;2022-10-15T01:45:59;6.93;;;3.97;;
1799;SDS011;919;48.274;12.292;2022-10-15T01:48:30;3.30;;;3.00;;
1799;SDS011;919;48.274;12.292;2022-10-15T01:51:00;5.03;;;2.77;;
1799;SDS011;919;48.274;12.292;2022-10-15T01:53:29;3.77;;;2.80;;
1799;SDS011;919;48.274;12.292;2022-10-15T01:55:59;6.50;;;5.43;;
1799;SDS011;919;48.274;12.292;2022-10-15T01:58:29;3.23;;;2.93;;
1799;SDS011;919;48.274;12.292;2022-10-15T02:00:58;3.00;;;2.80;;
1799;SDS011;919;48.274;12.292;2022-10-15T02:03:25;3.60;;;3.30;;
1799;SDS011;919;48.274;12.292;2022-10-15T02:05:54;3.03;;;2.70;;
1799;SDS011;919;48.274;12.292;2022-10-15T02:08:27;3.20;;;2.90;;
1799;SDS011;919;48.274;12.292;2022-10-15T02:11:04;3.23;;;3.00;;
1799;SDS011;919;48.274;12.292;2022-10-15T02:13:37;3.53;;;3.23;;
1799;SDS011;919;48.274;12.292;2022-10-15T02:16:15;3.37;;;3.07;;
1799;SDS011;919;48.274;12.292;2022-10-15T02:18:48;4.53;;;2.70;;
1799;SDS011;919;48.274;12.292;2022-10-15T02:21:24;2.70;;;2.50;;
1799;SDS011;919;48.274;12.292;2022-10-15T02:23:56;2.90;;;2.60;;
1799;SDS011;919;48.274;12.292;2022-10-15T02:26:28;3.00;;;2.60;;
1799;SDS011;919;48.274;12.292;2022-10-15T02:28:56;2.80;;;2.60;;
1799;SDS011;919;48.274;12.292;2022-10-15T02:31:26;2.00;;;1.90;;
1799;SDS011;919;48.274;12.292;2022-10-15T02:33:57;2.10;;;2.00;;
1799;SDS011;919;48.274;12.292;2022-10-15T02:36:28;3.87;;;2.00;;
1799;SDS011;919;48.274;12.292;2022-10-15T02:38:55;3.60;;;2.93;;
1799;SDS011;919;48.274;12.292;2022-10-15T02:41:25;4.80;;;3.37;;
1799;SDS011;919;48.274;12.292;2022-10-15T02:43:53;2.30;;;2.17;;
1799;SDS011;919;48.274;12.292;2022-10-15T02:46:20;5.63;;;2.90;;
1799;SDS011;919;48.274;12.292;2022-10-15T02:48:48;2.90;;;2.67;;
1799;SDS011;919;48.274;12.292;2022-10-15T02:51:15;2.53;;;2.33;;
1799;SDS011;919;48.274;12.292;2022-10-15T02:53:42;3.33;;;2.70;;
1799;SDS011;919;48.274;12.292;2022-10-15T02:56:08;2.63;;;2.43;;
1799;SDS011;919;48.274;12.292;2022-10-15T02:58:35;3.23;;;3.00;;
1799;SDS011;919;48.274;12.292;2022-10-15T03:01:02;3.27;;;2.77;;
1799;SDS011;919;48.274;12.292;2022-10-15T03:03:29;3.33;;;2.57;;
1799;SDS011;919;48.274;12.292;2022-10-15T03:05:58;2.17;;;2.03;;
1799;SDS011;919;48.274;12.292;2022-10-15T03:08:24;3.07;;;2.67;;
1799;SDS011;919;48.274;12.292;2022-10-15T03:10:51;2.00;;;1.90;;
1799;SDS011;919;48.274;12.292;2022-10-15T03:13:18;2.00;;;1.90;;
1799;SDS011;919;48.274;12.292;2022-10-15T03:15:45;2.50;;;1.90;;
1799;SDS011;919;48.274;12.292;2022-10-15T03:18:12;3.30;;;1.70;;
1799;SDS011;919;48.274;12.292;2022-10-15T03:20:38;1.70;;;1.60;;
1799;SDS011;919;48.274;12.292;2022-10-15T03:23:06;2.07;;;1.57;;
1799;SDS011;919;48.274;12.292;2022-10-15T03:25:33;1.70;;;1.60;;
1799;SDS011;919;48.274;12.292;2022-10-15T03:28:00;3.50;;;1.33;;
1799;SDS011;919;48.274;12.292;2022-10-15T03:30:27;1.57;;;1.37;;
1799;SDS011;919;48.274;12.292;2022-10-15T03:32:53;3.40;;;2.30;;
1799;SDS011;919;48.274;12.292;2022-10-15T03:35:20;2.20;;;2.00;;
1799;SDS011;919;48.274;12.292;2022-10-15T03:37:47;1.90;;;1.80;;
1799;SDS011;919;48.274;12.292;2022-10-15T03:40:15;2.43;;;2.00;;
1799;SDS011;919;48.274;12.292;2022-10-15T03:42:42;2.60;;;2.03;;
1799;SDS011;919;48.274;12.292;2022-10-15T03:45:09;2.03;;;1.90;;
1799;SDS011;919;48.274;12.292;2022-10-15T03:47:36;2.70;;;2.50;;
1799;SDS011;919;48.274;12.292;2022-10-15T03:50:03;2.17;;;1.90;;
1799;SDS011;919;48.274;12.292;2022-10-15T03:52:30;1.70;;;1.60;;
1799;SDS011;919;48.274;12.292;2022-10-15T03:54:57;1.87;;;1.50;;
1799;SDS011;919;48.274;12.292;2022-10-15T03:57:25;1.70;;;1.60;;
1799;SDS011;919;48.274;12.292;2022-10-15T03:59:55;1.80;;;1.70;;
1799;SDS011;919;48.274;12.292;2022-10-15T04:02:22;1.57;;;1.47;;
1799;SDS011;919;48.274;12.292;2022-10-15T04:04:50;1.50;;;1.40;;
1799;SDS011;919;48.274;12.292;2022-10-15T04:07:17;1.50;;;1.40;;
1799;SDS011;919;48.274;12.292;2022-10-15T04:09:43;2.07;;;1.97;;
1799;SDS011;919;48.274;12.292;2022-10-15T04:12:10;2.60;;;2.40;;
1799;SDS011;919;48.274;12.292;2022-10-15T04:14:39;1.63;;;1.53;;
1799;SDS011;919;48.274;12.292;2022-10-15T04:17:05;1.90;;;1.73;;
1799;SDS011;919;48.274;12.292;2022-10-15T04:19:32;2.30;;;1.93;;
1799;SDS011;919;48.274;12.292;2022-10-15T04:21:59;1.83;;;1.73;;
1799;SDS011;919;48.274;12.292;2022-10-15T04:24:26;2.40;;;1.87;;
1799;SDS011;919;48.274;12.292;2022-10-15T04:26:53;2.50;;;2.20;;
1799;SDS011;919;48.274;12.292;2022-10-15T04:29:20;1.97;;;1.87;;
1799;SDS011;919;48.274;12.292;2022-10-15T04:31:48;2.30;;;2.10;;
1799;SDS011;919;48.274;12.292;2022-10-15T04:34:15;4.50;;;1.50;;
1799;SDS011;919;48.274;12.292;2022-10-15T04:36:41;1.77;;;1.53;;
1799;SDS011;919;48.274;12.292;2022-10-15T04:39:08;1.57;;;1.47;;
1799;SDS011;919;48.274;12.292;2022-10-15T04:41:35;1.50;;;1.40;;
1799;SDS011;919;48.274;12.292;2022-10-15T04:44:02;1.60;;;1.50;;
1799;SDS011;919;48.274;12.292;2022-10-15T04:46:29;1.53;;;1.17;;
1799;SDS011;919;48.274;12.292;2022-10-15T04:48:57;1.50;;;1.40;;
1799;SDS011;919;48.274;12.292;2022-10-15T04:51:24;3.63;;;1.23;;
1799;SDS011;919;48.274;12.292;2022-10-15T04:53:51;1.60;;;1.30;;
1799;SDS011;919;48.274;12.292;2022-10-15T04:56:19;1.60;;;1.50;;
1799;SDS011;919;48.274;12.292;2022-10-15T04:58:47;1.13;;;1.13;;
1799;SDS011;919;48.274;12.292;2022-10-15T05:01:17;1.60;;;1.50;;
1799;SDS011;919;48.274;12.292;2022-10-15T05:03:45;1.60;;;1.37;;
1799;SDS011;919;48.274;12.292;2022-10-15T05:06:15;1.40;;;1.30;;
1799;SDS011;919;48.274;12.292;2022-10-15T05:08:43;1.60;;;1.30;;
1799;SDS011;919;48.274;12.292;2022-10-15T05:11:11;1.17;;;1.10;;
1799;SDS011;919;48.274;12.292;2022-10-15T05:13:40;1.10;;;0.97;;
1799;SDS011;919;48.274;12.292;2022-10-15T05:16:08;1.00;;;0.90;;
1799;SDS011;919;48.274;12.292;2022-10-15T05:18:36;1.50;;;1.13;;
1799;SDS011;919;48.274;12.292;2022-10-15T05:21:04;1.30;;;1.20;;
1799;SDS011;919;48.274;12.292;2022-10-15T05:23:32;1.43;;;1.33;;
1799;SDS011;919;48.274;12.292;2022-10-15T05:26:01;0.87;;;0.87;;
1799;SDS011;919;48.274;12.292;2022-10-15T05:28:30;1.17;;;0.93;;
1799;SDS011;919;48.274;12.292;2022-10-15T05:31:01;1.80;;;1.07;;
1799;SDS011;919;48.274;12.292;2022-10-15T05:33:29;1.10;;;0.70;;
1799;SDS011;919;48.274;12.292;2022-10-15T05:35:56;0.77;;;0.77;;
1799;SDS011;919;48.274;12.292;2022-10-15T05:38:23;0.90;;;0.90;;
1799;SDS011;919;48.274;12.292;2022-10-15T05:40:51;0.67;;;0.67;;
1799;SDS011;919;48.274;12.292;2022-10-15T05:43:18;1.07;;;0.73;;
1799;SDS011;919;48.274;12.292;2022-10-15T05:45:44;0.67;;;0.67;;
1799;SDS011;919;48.274;12.292;2022-10-15T05:48:11;1.47;;;0.90;;
1799;SDS011;919;48.274;12.292;2022-10-15T05:50:39;1.90;;;0.80;;
1799;SDS011;919;48.274;12.292;2022-10-15T05:53:06;0.63;;;0.60;;
1799;SDS011;919;48.274;12.292;2022-10-15T05:55:33;0.60;;;0.60;;
1799;SDS011;919;48.274;12.292;2022-10-15T05:58:02;0.50;;;0.50;;
1799;SDS011;919;48.274;12.292;2022-10-15T06:00:29;1.27;;;0.60;;
1799;SDS011;919;48.274;12.292;2022-10-15T06:02:57;1.57;;;0.70;;
1799;SDS011;919;48.274;12.292;2022-10-15T06:05:24;0.40;;;0.40;;
1799;SDS011;919;48.274;12.292;2022-10-15T06:07:50;1.23;;;0.60;;
1799;SDS011;919;48.274;12.292;2022-10-15T06:10:18;0.47;;;0.47;;
1799;SDS011;919;48.274;12.292;2022-10-15T06:12:47;0.50;;;0.50;;
1799;SDS011;919;48.274;12.292;2022-10-15T06:15:16;0.47;;;0.47;;
1799;SDS011;919;48.274;12.292;2022-10-15T06:17:43;0.43;;;0.43;;
1799;SDS011;919;48.274;12.292;2022-10-15T06:20:10;0.40;;;0.40;;
1799;SDS011;919;48.274;12.292;2022-10-15T06:22:38;0.80;;;0.67;;
1799;SDS011;919;48.274;12.292;2022-10-15T06:25:05;0.70;;;0.50;;
1799;SDS011;919;48.274;12.292;2022-10-15T06:27:33;0.53;;;0.53;;
1799;SDS011;919;48.274;12.292;2022-10-15T06:30:00;0.87;;;0.50;;
1799;SDS011;919;48.274;12.292;2022-10-15T06:32:28;1.90;;;0.50;;
1799;SDS011;919;48.274;12.292;2022-10-15T06:34:55;0.63;;;0.47;;
1799;SDS011;919;48.274;12.292;2022-10-15T06:37:22;2.40;;;0.43;;
1799;SDS011;919;48.274;12.292;2022-10-15T06:39:49;0.40;;;0.33;;
1799;SDS011;919;48.274;12.292;2022-10-15T06:42:16;0.50;;;0.50;;
1799;SDS011;919;48.274;12.292;2022-10-15T06:44:42;0.60;;;0.60;;
1799;SDS011;919;48.274;12.292;2022-10-15T06:47:09;1.27;;;0.70;;
1799;SDS011;919;48.274;12.292;2022-10-15T06:49:37;0.60;;;0.50;;
1799;SDS011;919;48.274;12.292;2022-10-15T06:52:04;0.40;;;0.40;;
1799;SDS011;919;48.274;12.292;2022-10-15T06:54:31;0.50;;;0.50;;
1799;SDS011;919;48.274;12.292;2022-10-15T06:56:58;5.33;;;0.50;;
1799;SDS011;919;48.274;12.292;2022-10-15T06:59:24;0.50;;;0.50;;
1799;SDS011;919;48.274;12.292;2022-10-15T07:01:51;0.67;;;0.60;;
1799;SDS011;919;48.274;12.292;2022-10-15T07:04:18;1.17;;;0.40;;
1799;SDS011;919;48.274;12.292;2022-10-15T07:06:46;0.50;;;0.50;;
1799;SDS011;919;48.274;12.292;2022-10-15T07:09:13;0.60;;;0.40;;
1799;SDS011;919;48.274;12.292;2022-10-15T07:11:40;0.90;;;0.60;;
1799;SDS011;919;48.274;12.292;2022-10-15T07:14:06;0.50;;;0.50;;
1799;SDS011;919;48.274;12.292;2022-10-15T07:16:33;1.40;;;0.50;;
1799;SDS011;919;48.274;12.292;2022-10-15T07:19:01;0.80;;;0.67;;
1799;SDS011;919;48.274;12.292;2022-10-15T07:21:28;1.60;;;0.60;;
1799;SDS011;919;48.274;12.292;2022-10-15T07:23:56;0.90;;;0.50;;
1799;SDS011;919;48.274;12.292;2022-10-15T07:26:24;0.40;;;0.40;;
1799;SDS011;919;48.274;12.292;2022-10-15T07:28:53;0.60;;;0.60;;
1799;SDS011;919;48.274;12.292;2022-10-15T07:31:19;0.50;;;0.50;;
1799;SDS011;919;48.274;12.292;2022-10-15T07:33:46;0.43;;;0.43;;
1799;SDS011;919;48.274;12.292;2022-10-15T07:36:13;0.40;;;0.40;;
1799;SDS011;919;48.274;12.292;2022-10-15T07:38:40;0.70;;;0.70;;
1799;SDS011;919;48.274;12.292;2022-10-15T07:41:09;1.03;;;0.70;;
1799;SDS011;919;48.274;12.292;2022-10-15T07:43:36;0.80;;;0.60;;
1799;SDS011;919;48.274;12.292;2022-10-15T07:46:03;0.50;;;0.50;;
1799;SDS011;919;48.274;12.292;2022-10-15T07:48:30;1.40;;;1.17;;
1799;SDS011;919;48.274;12.292;2022-10-15T07:50:58;0.50;;;0.50;;
1799;SDS011;919;48.274;12.292;2022-10-15T07:53:25;0.43;;;0.40;;
1799;SDS011;919;48.274;12.292;2022-10-15T07:55:53;0.40;;;0.40;;
1799;SDS011;919;48.274;12.292;2022-10-15T07:58:24;0.70;;;0.50;;
1799;SDS011;919;48.274;12.292;2022-10-15T08:00:52;0.50;;;0.50;;
1799;SDS011;919;48.274;12.292;2022-10-15T08:03:19;0.60;;;0.50;;
1799;SDS011;919;48.274;12.292;2022-10-15T08:05:46;0.40;;;0.40;;
1799;SDS011;919;48.274;12.292;2022-10-15T08:08:17;0.40;;;0.40;;
1799;SDS011;919;48.274;12.292;2022-10-15T08:10:44;0.50;;;0.50;;
1799;SDS011;919;48.274;12.292;2022-10-15T08:13:11;0.53;;;0.53;;
1799;SDS011;919;48.274;12.292;2022-10-15T08:15:39;0.70;;;0.40;;
1799;SDS011;919;48.274;12.292;2022-10-15T08:18:06;0.67;;;0.50;;
1799;SDS011;919;48.274;12.292;2022-10-15T08:20:35;1.10;;;0.50;;
1799;SDS011;919;48.274;12.292;2022-10-15T08:23:02;1.57;;;0.57;;
1799;SDS011;919;48.274;12.292;2022-10-15T08:25:29;0.50;;;0.50;;
1799;SDS011;919;48.274;12.292;2022-10-15T08:27:56;0.40;;;0.40;;
1799;SDS011;919;48.274;12.292;2022-10-15T08:30:24;0.67;;;0.53;;
1799;SDS011;919;48.274;12.292;2022-10-15T08:32:52;1.50;;;0.57;;
1799;SDS011;919;48.274;12.292;2022-10-15T08:35:19;0.70;;;0.53;;
1799;SDS011;919;48.274;12.292;2022-10-15T08:37:46;0.80;;;0.50;;
1799;SDS011;919;48.274;12.292;2022-10-15T08:40:13;0.40;;;0.40;;
1799;SDS011;919;48.274;12.292;2022-10-15T08:42:40;0.57;;;0.50;;
1799;SDS011;919;48.274;12.292;2022-10-15T08:45:10;1.07;;;0.50;;
1799;SDS011;919;48.274;12.292;2022-10-15T08:47:41;1.93;;;0.70;;
1799;SDS011;919;48.274;12.292;2022-10-15T08:50:15;0.40;;;0.40;;
1799;SDS011;919;48.274;12.292;2022-10-15T08:52:48;0.70;;;0.60;;
1799;SDS011;919;48.274;12.292;2022-10-15T08:55:18;0.80;;;0.60;;
1799;SDS011;919;48.274;12.292;2022-10-15T08:57:47;1.23;;;0.43;;
1799;SDS011;919;48.274;12.292;2022-10-15T09:00:18;0.40;;;0.40;;
1799;SDS011;919;48.274;12.292;2022-10-15T09:02:49;0.40;;;0.30;;
1799;SDS011;919;48.274;12.292;2022-10-15T09:05:27;0.40;;;0.40;;
1799;SDS011;919;48.274;12.292;2022-10-15T09:08:00;0.50;;;0.50;;
1799;SDS011;919;48.274;12.292;2022-10-15T09:10:34;1.67;;;0.40;;
1799;SDS011;919;48.274;12.292;2022-10-15T09:13:07;0.40;;;0.40;;
1799;SDS011;919;48.274;12.292;2022-10-15T09:15:40;0.60;;;0.50;;
1799;SDS011;919;48.274;12.292;2022-10-15T09:18:16;1.30;;;0.50;;
1799;SDS011;919;48.274;12.292;2022-10-15T09:20:48;0.40;;;0.40;;
1799;SDS011;919;48.274;12.292;2022-10-15T09:23:16;0.50;;;0.43;;
1799;SDS011;919;48.274;12.292;2022-10-15T09:25:46;0.60;;;0.50;;
1799;SDS011;919;48.274;12.292;2022-10-15T09:28:20;0.77;;;0.63;;
1799;SDS011;919;48.274;12.292;2022-10-15T09:30:51;0.50;;;0.50;;
1799;SDS011;919;48.274;12.292;2022-10-15T09:33:25;0.57;;;0.57;;
1799;SDS011;919;48.274;12.292;2022-10-15T09:36:05;0.50;;;0.50;;
1799;SDS011;919;48.274;12.292;2022-10-15T09:38:44;0.60;;;0.53;;
1799;SDS011;919;48.274;12.292;2022-10-15T09:41:29;0.50;;;0.50;;
1799;SDS011;919;48.274;12.292;2022-10-15T09:44:08;0.97;;;0.40;;
1799;SDS011;919;48.274;12.292;2022-10-15T09:46:41;0.67;;;0.67;;
1799;SDS011;919;48.274;12.292;2022-10-15T09:49:10;0.40;;;0.40;;
1799;SDS011;919;48.274;12.292;2022-10-15T09:51:44;1.50;;;0.50;;
1799;SDS011;919;48.274;12.292;2022-10-15T09:54:17;0.40;;;0.40;;
1799;SDS011;919;48.274;12.292;2022-10-15T09:56:50;0.30;;;0.30;;
1799;SDS011;919;48.274;12.292;2022-10-15T09:59:20;0.50;;;0.40;;
1799;SDS011;919;48.274;12.292;2022-10-15T10:01:55;0.40;;;0.30;;
1799;SDS011;919;48.274;12.292;2022-10-15T10:04:24;2.60;;;1.17;;
1799;SDS011;919;48.274;12.292;2022-10-15T10:06:54;0.70;;;0.70;;
1799;SDS011;919;48.274;12.292;2022-10-15T10:09:23;1.57;;;0.90;;
1799;SDS011;919;48.274;12.292;2022-10-15T10:11:57;0.60;;;0.50;;
1799;SDS011;919;48.274;12.292;2022-10-15T10:14:27;0.50;;;0.33;;
1799;SDS011;919;48.274;12.292;2022-10-15T10:17:04;0.40;;;0.40;;
1799;SDS011;919;48.274;12.292;2022-10-15T10:19:42;0.40;;;0.40;;
1799;SDS011;919;48.274;12.292;2022-10-15T10:22:15;0.80;;;0.40;;
1799;SDS011;919;48.274;12.292;2022-10-15T10:24:43;0.60;;;0.50;;
1799;SDS011;919;48.274;12.292;2022-10-15T10:27:15;0.60;;;0.40;;
1799;SDS011;919;48.274;12.292;2022-10-15T10:29:47;0.37;;;0.30;;
1799;SDS011;919;48.274;12.292;2022-10-15T10:32:17;0.30;;;0.30;;
1799;SDS011;919;48.274;12.292;2022-10-15T10:34:47;0.40;;;0.30;;
1799;SDS011;919;48.274;12.292;2022-10-15T10:37:16;0.50;;;0.40;;
1799;SDS011;919;48.274;12.292;2022-10-15T10:39:43;0.40;;;0.40;;
1799;SDS011;919;48.274;12.292;2022-10-15T10:45:06;0.60;;;0.43;;
1799;SDS011;919;48.274;12.292;2022-10-15T10:47:41;0.40;;;0.40;;
1799;SDS011;919;48.274;12.292;2022-10-15T10:50:24;0.30;;;0.20;;
1799;SDS011;919;48.274;12.292;2022-10-15T10:52:57;0.50;;;0.30;;
1799;SDS011;919;48.274;12.292;2022-10-15T10:55:44;0.30;;;0.30;;
1799;SDS011;919;48.274;12.292;2022-10-15T10:58:14;0.70;;;0.70;;
1799;SDS011;919;48.274;12.292;2022-10-15T11:00:45;0.63;;;0.63;;
1799;SDS011;919;48.274;12.292;2022-10-15T11:03:18;0.50;;;0.50;;
1799;SDS011;919;48.274;12.292;2022-10-15T11:05:54;0.50;;;0.50;;
1799;SDS011;919;48.274;12.292;2022-10-15T11:08:29;0.50;;;0.40;;
1799;SDS011;919;48.274;12.292;2022-10-15T11:11:06;0.53;;;0.50;;
1799;SDS011;919;48.274;12.292;2022-10-15T11:13:41;0.50;;;0.50;;
1799;SDS011;919;48.274;12.292;2022-10-15T11:16:17;2.20;;;0.70;;
1799;SDS011;919;48.274;12.292;2022-10-15T11:18:56;0.40;;;0.40;;
1799;SDS011;919;48.274;12.292;2022-10-15T11:21:36;0.40;;;0.40;;
1799;SDS011;919;48.274;12.292;2022-10-15T11:24:13;0.60;;;0.60;;
1799;SDS011;919;48.274;12.292;2022-10-15T11:26:57;0.50;;;0.50;;
1799;SDS011;919;48.274;12.292;2022-10-15T11:29:40;1.73;;;0.40;;
1799;SDS011;919;48.274;12.292;2022-10-15T11:32:18;0.40;;;0.30;;
1799;SDS011;919;48.274;12.292;2022-10-15T11:35:02;0.73;;;0.73;;
1799;SDS011;919;48.274;12.292;2022-10-15T11:37:47;0.77;;;0.77;;
1799;SDS011;919;48.274;12.292;2022-10-15T11:40:22;0.60;;;0.60;;
1799;SDS011;919;48.274;12.292;2022-10-15T11:42:59;0.70;;;0.63;;
1799;SDS011;919;48.274;12.292;2022-10-15T11:45:48;1.20;;;0.90;;
1799;SDS011;919;48.274;12.292;2022-10-15T11:48:24;0.90;;;0.90;;
1799;SDS011;919;48.274;12.292;2022-10-15T11:51:02;1.00;;;0.87;;
1799;SDS011;919;48.274;12.292;2022-10-15T11:53:40;0.60;;;0.57;;
1799;SDS011;919;48.274;12.292;2022-10-15T11:56:23;0.90;;;0.70;;
1799;SDS011;919;48.274;12.292;2022-10-15T11:58:54;0.60;;;0.60;;
1799;SDS011;919;48.274;12.292;2022-10-15T12:01:24;1.07;;;0.97;;
1799;SDS011;919;48.274;12.292;2022-10-15T12:03:56;0.50;;;0.50;;
1799;SDS011;919;48.274;12.292;2022-10-15T12:06:26;0.43;;;0.43;;
1799;SDS011;919;48.274;12.292;2022-10-15T12:08:58;1.53;;;0.70;;
1799;SDS011;919;48.274;12.292;2022-10-15T12:11:32;0.97;;;0.70;;
1799;SDS011;919;48.274;12.292;2022-10-15T12:14:11;0.83;;;0.73;;
1799;SDS011;919;48.274;12.292;2022-10-15T12:16:45;0.70;;;0.60;;
1799;SDS011;919;48.274;12.292;2022-10-15T12:19:21;1.43;;;0.80;;
1799;SDS011;919;48.274;12.292;2022-10-15T12:22:02;0.87;;;0.83;;
1799;SDS011;919;48.274;12.292;2022-10-15T12:24:48;0.83;;;0.80;;
1799;SDS011;919;48.274;12.292;2022-10-15T12:27:21;2.13;;;0.67;;
1799;SDS011;919;48.274;12.292;2022-10-15T12:29:51;0.63;;;0.63;;
1799;SDS011;919;48.274;12.292;2022-10-15T12:32:37;0.60;;;0.60;;
1799;SDS011;919;48.274;12.292;2022-10-15T12:35:06;1.40;;;1.00;;
1799;SDS011;919;48.274;12.292;2022-10-15T12:37:45;0.83;;;0.80;;
1799;SDS011;919;48.274;12.292;2022-10-15T12:43:01;1.13;;;0.70;;
1799;SDS011;919;48.274;12.292;2022-10-15T12:45:32;0.73;;;0.70;;
1799;SDS011;919;48.274;12.292;2022-10-15T12:48:17;0.80;;;0.80;;
1799;SDS011;919;48.274;12.292;2022-10-15T12:57:01;1.20;;;1.10;;
1799;SDS011;919;48.274;12.292;2022-10-15T12:59:53;1.70;;;1.23;;
1799;SDS011;919;48.274;12.292;2022-10-15T13:02:36;3.20;;;0.80;;
1799;SDS011;919;48.274;12.292;2022-10-15T13:05:21;0.50;;;0.50;;
1799;SDS011;919;48.274;12.292;2022-10-15T13:07:50;0.70;;;0.70;;
1799;SDS011;919;48.274;12.292;2022-10-15T13:10:19;1.93;;;0.70;;
1799;SDS011;919;48.274;12.292;2022-10-15T13:12:50;1.13;;;0.90;;
1799;SDS011;919;48.274;12.292;2022-10-15T13:15:20;0.87;;;0.63;;
1799;SDS011;919;48.274;12.292;2022-10-15T13:17:48;1.00;;;0.70;;
1799;SDS011;919;48.274;12.292;2022-10-15T13:20:24;1.30;;;0.83;;
1799;SDS011;919;48.274;12.292;2022-10-15T13:23:06;0.70;;;0.70;;
1799;SDS011;919;48.274;12.292;2022-10-15T13:25:33;0.90;;;0.70;;
1799;SDS011;919;48.274;12.292;2022-10-15T13:28:00;1.10;;;1.00;;
1799;SDS011;919;48.274;12.292;2022-10-15T13:30:28;0.60;;;0.60;;
1799;SDS011;919;48.274;12.292;2022-10-15T13:32:55;0.83;;;0.80;;
1799;SDS011;919;48.274;12.292;2022-10-15T13:35:23;0.60;;;0.60;;
1799;SDS011;919;48.274;12.292;2022-10-15T13:37:54;1.43;;;0.70;;
1799;SDS011;919;48.274;12.292;2022-10-15T13:40:22;2.30;;;0.80;;
1799;SDS011;919;48.274;12.292;2022-10-15T13:42:57;0.60;;;0.60;;
1799;SDS011;919;48.274;12.292;2022-10-15T13:45:24;0.50;;;0.50;;
1799;SDS011;919;48.274;12.292;2022-10-15T13:47:53;0.50;;;0.50;;
1799;SDS011;919;48.274;12.292;2022-10-15T13:50:21;1.13;;;0.77;;
1799;SDS011;919;48.274;12.292;2022-10-15T13:52:51;0.60;;;0.60;;
1799;SDS011;919;48.274;12.292;2022-10-15T13:55:21;0.50;;;0.50;;
1799;SDS011;919;48.274;12.292;2022-10-15T13:57:51;1.23;;;0.50;;
1799;SDS011;919;48.274;12.292;2022-10-15T14:00:25;0.83;;;0.80;;
1799;SDS011;919;48.274;12.292;2022-10-15T14:03:14;1.17;;;0.73;;
1799;SDS011;919;48.274;12.292;2022-10-15T14:05:42;1.17;;;1.00;;
1799;SDS011;919;48.274;12.292;2022-10-15T14:08:15;1.07;;;0.97;;
1799;SDS011;919;48.274;12.292;2022-10-15T14:10:43;1.53;;;0.80;;
1799;SDS011;919;48.274;12.292;2022-10-15T14:13:11;1.30;;;0.80;;
1799;SDS011;919;48.274;12.292;2022-10-15T14:15:41;0.50;;;0.50;;
1799;SDS011;919;48.274;12.292;2022-10-15T14:18:11;0.80;;;0.80;;
1799;SDS011;919;48.274;12.292;2022-10-15T14:20:42;0.70;;;0.70;;
1799;SDS011;919;48.274;12.292;2022-10-15T14:23:16;0.60;;;0.60;;
1799;SDS011;919;48.274;12.292;2022-10-15T14:25:50;0.60;;;0.60;;
1799;SDS011;919;48.274;12.292;2022-10-15T14:28:19;1.33;;;0.50;;
1799;SDS011;919;48.274;12.292;2022-10-15T14:30:47;0.80;;;0.70;;
1799;SDS011;919;48.274;12.292;2022-10-15T14:36:23;0.97;;;0.60;;
1799;SDS011;919;48.274;12.292;2022-10-15T14:38:52;3.60;;;0.83;;
1799;SDS011;919;48.274;12.292;2022-10-15T14:41:24;0.97;;;0.70;;
1799;SDS011;919;48.274;12.292;2022-10-15T14:44:00;0.70;;;0.70;;
1799;SDS011;919;48.274;12.292;2022-10-15T14:46:33;0.77;;;0.77;;
1799;SDS011;919;48.274;12.292;2022-10-15T14:49:04;0.70;;;0.70;;
1799;SDS011;919;48.274;12.292;2022-10-15T14:51:51;0.57;;;0.57;;
1799;SDS011;919;48.274;12.292;2022-10-15T14:54:22;4.53;;;1.30;;
1799;SDS011;919;48.274;12.292;2022-10-15T14:56:53;0.80;;;0.80;;
1799;SDS011;919;48.274;12.292;2022-10-15T14:59:27;0.97;;;0.70;;
1799;SDS011;919;48.274;12.292;2022-10-15T15:01:57;1.33;;;0.70;;
1799;SDS011;919;48.274;12.292;2022-10-15T15:04:37;1.00;;;0.80;;
1799;SDS011;919;48.274;12.292;2022-10-15T15:07:12;0.80;;;0.80;;
1799;SDS011;919;48.274;12.292;2022-10-15T15:09:41;0.57;;;0.57;;
1799;SDS011;919;48.274;12.292;2022-10-15T15:12:16;0.90;;;0.90;;
1799;SDS011;919;48.274;12.292;2022-10-15T15:14:45;1.03;;;0.60;;
1799;SDS011;919;48.274;12.292;2022-10-15T15:17:13;0.70;;;0.70;;
1799;SDS011;919;48.274;12.292;2022-10-15T15:19:42;0.90;;;0.87;;
1799;SDS011;919;48.274;12.292;2022-10-15T15:22:09;2.27;;;0.77;;
1799;SDS011;919;48.274;12.292;2022-10-15T15:24:38;1.27;;;0.60;;
1799;SDS011;919;48.274;12.292;2022-10-15T15:27:05;0.77;;;0.77;;
1799;SDS011;919;48.274;12.292;2022-10-15T15:29:32;2.23;;;0.63;;
1799;SDS011;919;48.274;12.292;2022-10-15T15:31:59;0.70;;;0.70;;
1799;SDS011;919;48.274;12.292;2022-10-15T15:34:26;3.03;;;0.87;;
1799;SDS011;919;48.274;12.292;2022-10-15T15:36:54;3.50;;;0.90;;
1799;SDS011;919;48.274;12.292;2022-10-15T15:39:21;1.33;;;1.00;;
1799;SDS011;919;48.274;12.292;2022-10-15T15:41:47;2.10;;;1.90;;
1799;SDS011;919;48.274;12.292;2022-10-15T15:44:14;1.27;;;1.17;;
1799;SDS011;919;48.274;12.292;2022-10-15T15:46:41;1.00;;;0.90;;
1799;SDS011;919;48.274;12.292;2022-10-15T15:49:08;1.40;;;1.10;;
1799;SDS011;919;48.274;12.292;2022-10-15T15:51:35;1.10;;;1.00;;
1799;SDS011;919;48.274;12.292;2022-10-15T15:54:03;0.70;;;0.70;;
1799;SDS011;919;48.274;12.292;2022-10-15T15:56:33;1.27;;;1.13;;
1799;SDS011;919;48.274;12.292;2022-10-15T15:59:01;1.03;;;1.00;;
1799;SDS011;919;48.274;12.292;2022-10-15T16:01:28;0.80;;;0.80;;